Aérodrome :
LOGIN :

S'inscrire | Disclaimer

   EN    FR    IT 

 










Légende :    VFR   VFR Marginal   IFR   IFR Intensif   IFR Très Intensif
Visi : 
Plafond : 
>= 8 km
>= 3000ft
5 à 8 km
1000 à 3000 ft
1500m à 5 km
500 à 1000 ft
800 à 1500m
200 à 500 ft
< 800m
< 200 ft
Symboles :   Orages  Brouillard  Fortes neiges  Fortes précipitations  Vent > 20 kt
SIGMETs :   Divers  Orages  Givrage  Turbulence  Onde Orograph.  Cendres Volcan.






- Altitude de l'aérodrome : 122 ft
- Code IATA : TXL


EDDT - Berlin Tegel Int.

DERNIER METAR :
  • 120220Z 19006KT 8000 -SNRA BKN005 01/01 Q1003

METARs EXPIRÉS :
  • 120150Z 19007KT 9999 -SNRA BKN006 02/01 Q1003
  • 120120Z 19008KT 9999 -SNRA BKN009 02/01 Q1003
  • 120050Z 19006KT 9999 -SNRA BKN009 02/01 Q1003
  • 120020Z 20005KT 180V240 9999 -SNRA BKN012 02/00 Q1003
  • 112350Z 19006KT 150V230 9999 -RA BKN015 03/M01 Q1004

TAF TAF EDDT
Valide du 12 à 00h jusqu'au 13 à 00h UTC


112300Z 1200/1224 20007KT 9999 BKN025
BECMG 1200/1204 4000 -RASN BKN008
PROB30
TEMPO 1201/1208 2000 -RASN BKN004
BECMG 1207/1210 8000 BKN012
BECMG 1210/1213 SCT020
BECMG 1216/1218 14006KT



MET'MAP, la Météo Aéronautique d'un coup d'oeil ! - Copyright ORBIFLY Décembre 2007 - Disclaimer

ORBIFLY MET'MAP TEAM :

Programmation & Développement : Alexandra Zaïnal
Sur une idée originale de : Baudouin d'Aumeries
Assistance à la programmation : Marc-Olivier Méhu
Soutien technique & logistique : Manuel Goepfert

Contact : metmap@orbifly.com




SOURCES & CREDITS :

   NOAA